Share

Nakhon Si Thammarat, Thailand

Nakhon Si Thammarat (VTSF) Elev 13 ft | 8.54 °N, 99.94 °E | Change Station

Current weather conditions updated 18 minutes ago

Scattered Clouds
Scattered Clouds
95 °F
Feels Like 107 °F
N
12
Wind Variable Wind from East
Sunrise 6:10 AM
Sunset 6:29 PM
Moon Waning Gibbous

Today is forecast to be nearly the same temperature as yesterday. Thunderstorms.

Pressure 29.74 in
Visibility 6.2 miles
Clouds Few 1700 ft
Scattered Clouds 30000 ft
Heat Index 107 °F
Dew Point 75 °F
Humidity 53%
Rainfall 0.00 in
Snow Depth Not available.
UV 11 out of 16
Pollen Not available.
Air Quality Not available.
Flu Activity Not available.
METAR VTSF 170700Z 08010KT 040V110 9999 FEW017TCU SCT300 35/24 Q1007 A2975 INFO H / RWY 19

More Conditions Fewer Conditions

Pressure 29.74 in
Visibility 6.2 miles
Clouds Few 1700 ft
Scattered Clouds 30000 ft
Heat Index 107 °F
Dew Point 75 °F
Humidity 53%
Rainfall 0.00 in
Snow Depth Not available.
UV 11 out of 16
Pollen Not available.
Air Quality Not available.
Flu Activity Not available.
METAR VTSF 170700Z 08010KT 040V110 9999 FEW017TCU SCT300 35/24 Q1007 A2975 INFO H / RWY 19

More Conditions Fewer Conditions

10-Day Forecast

Almanac

Astronomy

Apr. 17, 2014 Rise Set
Actual Time 6:10 AM ICT 6:29 PM ICT
Civil Twilight 5:48 AM ICT 6:50 PM ICT
Nautical Twilight 5:24 AM ICT 7:15 PM ICT
Astronomical Twilight 4:59 AM ICT 7:40 PM ICT
Moon 8:22 PM ICT 7:33 AM ICT
Length of Visible Light 13h 01m
Length of Day
12h 19m
Tomorrow will be 0m 27s longer.
Waning Gibbous, 95% of the Moon is Illuminated
Today
Waning Gibbous
Apr 22
Last Quarter
Apr 29
New
May 6
First Quarter
May 14
Full

Yesterday's Extremes

Country Highs Country Lows

Community

  • Sunset over the Bay
    Sunset over the Bay
  • symphony in blue....
    symphony in blue....
  • Dawn Surprise
    Dawn Surprise
  • Yucca delight
    Yucca delight
  • Sunset inside of the Ocean
    Sunset inside of the Ocean

WunderPhotos

Upload Photos

1,701,875 photos uploaded!

WunderBlogs® & News

Nearby

Snow Depth

Not available.

Coastal Water Temperatures

Place Temperature
No Stations Reporting

Earthquake Activity

City Distance Mag. Time & Date
No recent earthquake activity has been reported nearby.
Minimum magnitude displayed is 2.5.

Nearby Weather Stations

There are no personal weather stations in this area.

What do you think?

We're not finished. Please let us know what you like, what you don't like, and what you are still missing.